Pima, AZ (85543)

12:39 PM MST on February 06, 2016 (GMT -0700)
Graham | | Change Station
CLOSE
Current Station
Personal Weather Station
Location: Safford, AZ
Elevation: 2877 ft
Nearby Weather Stations

Elev 2877 ft 32.88 °N, 109.75 °W | Updated 17 seconds ago

Clear
Clear
56.3 °F
Feels Like 56.3 °F
N
8.9
Wind Variable Wind from SE
Gusts 9.8 mph

Today
High -- | Low -- °F
--% Chance of Precip.
Yesterday
High -- | Low -- °F
Precip. -- in
Pressure 30.38 in
Visibility 10.0 miles
Clouds Clear
Dew Point 17 °F
Humidity 21%
Rainfall 0.00 in
Snow Depth Not available.
7:11 AM 5:56 PM
Waning Crescent, 4% visible
METAR KSAD 061851Z AUTO 14008KT 10SM CLR 12/M11 A3042 RMK AO2 SLP287 T01221111
Pressure 30.38 in
Visibility 10.0 miles
Clouds Clear
Dew Point 17 °F
Humidity 21%
Rainfall 0.00 in
Snow Depth Not available.
7:11 AM 5:56 PM
Waning Crescent, 4% visible
METAR KSAD 061851Z AUTO 14008KT 10SM CLR 12/M11 A3042 RMK AO2 SLP287 T01221111

10-Day Weather Forecast

Almanac

Astronomy

Feb. 06, 2016 Rise Set
Actual Time
Civil Twilight
Nautical Twilight
Astronomical Twilight
Moon
Length of Visible Light
Length of Day
Tomorrow will be .
, % of the Moon is Illuminated

Today's Extremes

State Highs State Lows

Community

WunderPhotos

Upload Photos

1,891,037 photos uploaded!

WunderBlog® & News

Nearby

Air Quality

  Air Quality AQ Index Pollutant
Not available.

Snow Depth

Station Depth Elevation

Earthquake Activity

City Distance Mag. Time & Date
Minimum magnitude displayed is 2.5.

Coastal Water Temperatures

Place Temperature

Stations

Nearby Weather Stations

Station Location Temp. Windchill Dew Point Humidity Wind Precip. Elev Updated Type
                   

Watches & Warnings

There are currently no watches in effect.